createdAt,value
2017-09-22T00:05:13.170Z,10.8
2017-09-22T00:15:32.320Z,10.7
2017-09-22T00:26:24.106Z,10.5
2017-09-22T00:37:09.130Z,10.4
2017-09-22T00:47:36.231Z,10.4
2017-09-22T00:57:56.017Z,10.3
2017-09-22T01:08:17.083Z,10.1
2017-09-22T01:18:38.879Z,10.0
2017-09-22T01:28:52.333Z,9.9
2017-09-22T01:39:06.608Z,9.8
2017-09-22T01:49:51.369Z,9.7
2017-09-22T02:00:35.334Z,9.6
2017-09-22T02:10:49.736Z,9.6
2017-09-22T02:21:03.716Z,9.5
2017-09-22T02:31:17.977Z,9.5
2017-09-22T02:41:32.472Z,9.4
2017-09-22T02:52:16.932Z,9.3
2017-09-22T03:02:37.235Z,9.3
2017-09-22T03:13:23.055Z,9.3
2017-09-22T03:23:39.091Z,9.3
2017-09-22T03:33:53.318Z,9.3
2017-09-22T03:44:07.462Z,9.3
2017-09-22T03:54:58.092Z,9.2
2017-09-22T04:05:17.324Z,9.2
2017-09-22T04:15:30.755Z,9.1
2017-09-22T04:25:45.122Z,9.0
2017-09-22T04:35:59.049Z,9.0
2017-09-22T04:46:12.489Z,8.9
2017-09-22T04:56:25.949Z,8.8
2017-09-22T05:06:43.208Z,8.7
2017-09-22T05:16:57.358Z,8.6
2017-09-22T05:27:11.675Z,8.5
2017-09-22T05:37:25.928Z,8.4
2017-09-22T05:47:40.189Z,8.4
2017-09-22T05:57:54.305Z,8.3
2017-09-22T06:08:38.251Z,8.4
2017-09-22T06:18:52.546Z,8.4
2017-09-22T06:29:37.401Z,8.7
2017-09-22T06:39:51.437Z,8.7
2017-09-22T06:50:05.757Z,8.9
2017-09-22T07:00:54.480Z,9.3
2017-09-22T07:11:08.977Z,9.3
2017-09-22T07:21:23.145Z,9.6
2017-09-22T07:31:37.144Z,10.0
2017-09-22T07:41:50.072Z,10.7
2017-09-22T07:52:08.010Z,12.5
2017-09-22T08:02:21.870Z,14.6
2017-09-22T08:12:33.250Z,16.5
2017-09-22T08:22:47.355Z,18.2
2017-09-22T08:33:03.044Z,19.7
2017-09-22T08:43:22.116Z,21.1
2017-09-22T08:53:40.552Z,22.5
2017-09-22T09:04:02.005Z,23.8
2017-09-22T09:14:13.829Z,24.9
2017-09-22T09:24:30.437Z,25.8
2017-09-22T09:34:44.173Z,26.6
2017-09-22T09:45:00.967Z,27.4
2017-09-22T09:55:27.083Z,27.8
2017-09-22T10:05:40.839Z,28.3
2017-09-22T10:15:52.797Z,28.9
2017-09-22T10:26:17.374Z,29.4
2017-09-22T10:37:04.772Z,30.6
2017-09-22T10:47:25.904Z,30.6
2017-09-22T10:57:50.846Z,30.7
2017-09-22T11:08:05.454Z,30.6
2017-09-22T11:18:19.176Z,30.6
2017-09-22T11:28:35.805Z,30.8
2017-09-22T11:39:05.471Z,30.9
2017-09-22T11:49:24.293Z,30.2
2017-09-22T11:59:38.403Z,29.1
2017-09-22T12:09:52.724Z,28.2
2017-09-22T12:20:37.950Z,26.8
2017-09-22T12:31:25.403Z,26.3
2017-09-22T12:41:39.611Z,26.3
2017-09-22T12:51:53.939Z,25.8
2017-09-22T13:02:38.716Z,25.2
2017-09-22T13:14:06.506Z,25.2
2017-09-22T13:24:57.750Z,25.1
2017-09-22T13:35:19.977Z,25.1
2017-09-22T13:46:09.056Z,24.6
2017-09-22T13:58:23.140Z,24.4
2017-09-22T14:08:39.673Z,24.4
2017-09-22T14:18:51.657Z,24.3
2017-09-22T14:29:05.422Z,24.3
2017-09-22T14:39:22.480Z,24.5
2017-09-22T14:50:09.021Z,24.8
2017-09-22T15:00:22.549Z,24.8
2017-09-22T15:10:36.964Z,24.7
2017-09-22T15:20:51.262Z,24.5
2017-09-22T15:31:05.310Z,24.2
2017-09-22T15:41:49.174Z,24.0
2017-09-22T15:52:34.248Z,23.8
2017-09-22T16:02:49.183Z,23.6
2017-09-22T16:13:05.384Z,23.3
2017-09-22T16:23:24.564Z,22.9
2017-09-22T16:33:56.820Z,22.6
2017-09-22T16:44:19.855Z,22.3
2017-09-22T16:54:36.900Z,22.0
2017-09-22T17:04:52.122Z,21.7
2017-09-22T17:15:06.448Z,21.5
2017-09-22T17:25:20.943Z,21.1
2017-09-22T17:36:32.262Z,20.8
2017-09-22T17:46:47.051Z,20.4
2017-09-22T17:57:04.932Z,19.9
2017-09-22T18:07:20.432Z,19.4
2017-09-22T18:17:42.907Z,19.0
2017-09-22T18:27:58.438Z,18.6
2017-09-22T18:38:13.002Z,18.3
2017-09-22T18:48:25.025Z,18.0
2017-09-22T18:58:43.173Z,17.8
2017-09-22T19:08:59.104Z,17.5
2017-09-22T19:19:12.949Z,17.3
2017-09-22T19:29:27.123Z,17.0
2017-09-22T19:39:43.057Z,16.8
2017-09-22T19:50:30.836Z,16.4
2017-09-22T20:01:53.387Z,16.3
2017-09-22T20:12:46.472Z,16.2
2017-09-22T20:23:02.116Z,16.1
2017-09-22T20:33:17.404Z,16.0
2017-09-22T20:43:34.439Z,16.0
2017-09-22T20:54:33.523Z,15.8
2017-09-22T21:04:50.563Z,15.8
2017-09-22T21:15:09.830Z,15.7
2017-09-22T21:25:24.059Z,15.6
2017-09-22T21:35:35.265Z,15.5
2017-09-22T21:45:49.500Z,15.5
2017-09-22T21:56:00.828Z,15.4
2017-09-22T22:06:15.216Z,15.3
2017-09-22T22:16:29.443Z,15.2
2017-09-22T22:26:46.394Z,15.1
2017-09-22T22:36:59.962Z,15.0
2017-09-22T22:47:13.959Z,15.0
2017-09-22T22:57:25.295Z,14.9
2017-09-22T23:07:39.611Z,14.8
2017-09-22T23:17:50.793Z,14.7
2017-09-22T23:28:05.282Z,14.5
2017-09-22T23:38:19.154Z,14.4
2017-09-22T23:48:33.477Z,14.3
2017-09-22T23:58:47.724Z,14.3
